Time;durP1;ratioP1;P1;durP2;ratioP2;P2;SDS_P1;SDS_P2;PMS_P1;PMS_P2;Temp;Humidity;BMP_temperature;BMP_pressure;BME280_temperature;BME280_humidity;BME280_pressure;Samples;Min_cycle;Max_cycle;Signal;HPM_P1;HPM_P2
2022/08/26 00:00:30;;;;;;;0.60;0.60;;;11.20;99.90;;;;;;5135753;27;20261;-74
2022/08/26 00:02:57;;;;;;;0.52;0.52;;;11.20;99.90;;;;;;5117338;27;20195;-72
2022/08/26 00:05:23;;;;;;;0.60;0.60;;;11.10;99.90;;;;;;5134646;27;20260;-73
2022/08/26 00:07:50;;;;;;;0.60;0.60;;;11.10;99.90;;;;;;5114108;28;20290;-72
2022/08/26 00:10:16;;;;;;;0.57;0.57;;;11.10;99.90;;;;;;5115096;28;20223;-72
2022/08/26 00:12:42;;;;;;;0.50;0.50;;;11.10;99.90;;;;;;5113680;28;20559;-73
2022/08/26 00:15:11;;;;;;;0.60;0.60;;;11.10;99.90;;;;;;5113630;28;20191;-72
2022/08/26 00:17:36;;;;;;;0.55;0.55;;;11.00;99.90;;;;;;5113473;28;20218;-72
2022/08/26 00:20:05;;;;;;;0.50;0.50;;;11.00;99.90;;;;;;5114747;28;20653;-72
2022/08/26 00:22:31;;;;;;;0.50;0.50;;;11.00;99.90;;;;;;5113728;28;20278;-72
2022/08/26 00:25:00;;;;;;;0.73;0.73;;;11.00;99.90;;;;;;5113587;28;20377;-71
2022/08/26 00:27:26;;;;;;;0.60;0.60;;;10.90;99.90;;;;;;5130836;27;20201;-72
2022/08/26 00:29:51;;;;;;;0.60;0.60;;;11.00;99.90;;;;;;5135114;27;20210;-72
2022/08/26 00:32:17;;;;;;;0.50;0.50;;;11.00;99.90;;;;;;5116846;27;20562;-72
2022/08/26 00:34:43;;;;;;;0.60;0.60;;;10.90;99.90;;;;;;5116768;27;20199;-73
2022/08/26 00:37:09;;;;;;;0.68;0.68;;;10.90;99.90;;;;;;5116337;27;20195;-71
2022/08/26 00:39:34;;;;;;;0.50;0.50;;;10.90;99.90;;;;;;5116839;27;20281;-72
2022/08/26 00:42:00;;;;;;;0.50;0.50;;;10.90;99.90;;;;;;5116919;27;20187;-72
2022/08/26 00:44:26;;;;;;;0.93;0.93;;;10.90;99.90;;;;;;5134737;27;20263;-71
2022/08/26 00:47:00;;;;;;;0.50;0.50;;;10.90;99.90;;;;;;5134979;27;20597;-72
2022/08/26 00:49:38;;;;;;;0.95;0.70;;;10.90;99.90;;;;;;5116413;27;20198;-73
2022/08/26 00:52:08;;;;;;;0.50;0.50;;;10.90;99.90;;;;;;5116589;27;20271;-73
2022/08/26 00:54:39;;;;;;;0.60;0.60;;;10.90;99.90;;;;;;5116150;27;20664;-72
2022/08/26 00:57:10;;;;;;;0.50;0.50;;;10.80;99.90;;;;;;5134877;27;20615;-73
2022/08/26 00:59:36;;;;;;;0.63;0.63;;;10.80;99.90;;;;;;5116362;27;20194;-73
2022/08/26 01:02:03;;;;;;;0.50;0.50;;;10.80;99.90;;;;;;5134794;27;20186;-74
2022/08/26 01:04:32;;;;;;;0.60;0.60;;;10.80;99.90;;;;;;5112557;28;20219;-74
2022/08/26 01:06:58;;;;;;;0.50;0.50;;;10.80;99.90;;;;;;5112946;28;20205;-74
2022/08/26 01:09:27;;;;;;;0.88;0.88;;;10.70;99.90;;;;;;5114163;28;20195;-73
2022/08/26 01:11:57;;;;;;;0.68;0.68;;;10.70;99.90;;;;;;5112714;28;20724;-74
2022/08/26 01:14:28;;;;;;;0.55;0.55;;;10.70;99.90;;;;;;5113715;28;20244;-74
2022/08/26 01:16:57;;;;;;;0.77;0.77;;;10.70;99.90;;;;;;5111724;28;20195;-74
2022/08/26 01:19:50;;;;;;;0.40;0.40;;;10.70;99.90;;;;;;5119779;27;20206;-74
2022/08/26 01:22:29;;;;;;;0.50;0.50;;;10.70;99.90;;;;;;5134342;27;20195;-73
2022/08/26 01:25:03;;;;;;;0.60;0.60;;;10.60;99.90;;;;;;5115728;27;20210;-73
2022/08/26 01:27:31;;;;;;;0.50;0.50;;;10.60;99.90;;;;;;5112179;28;20187;-73
2022/08/26 01:29:58;;;;;;;0.50;0.50;;;10.60;99.90;;;;;;5091843;28;20223;-73
2022/08/26 01:32:28;;;;;;;0.60;0.60;;;10.60;99.90;;;;;;5091841;28;20196;-73
2022/08/26 01:34:56;;;;;;;0.60;0.60;;;10.60;99.90;;;;;;5107305;28;20200;-73
2022/08/26 01:37:28;;;;;;;0.50;0.50;;;10.60;99.90;;;;;;5112072;28;20344;-72
2022/08/26 01:39:55;;;;;;;0.60;0.60;;;10.60;99.90;;;;;;5112427;28;20213;-72
2022/08/26 01:42:23;;;;;;;0.65;0.65;;;10.50;99.90;;;;;;5111978;28;20248;-72
2022/08/26 01:48:10;;;;;;;0.60;0.60;;;10.50;99.90;;;;;;5104839;28;20201;-72
2022/08/26 01:50:37;;;;;;;0.60;0.60;;;10.50;99.90;;;;;;5111977;28;20536;-72
2022/08/26 01:53:07;;;;;;;0.50;0.50;;;10.40;99.90;;;;;;5113396;28;20207;-72
2022/08/26 01:55:36;;;;;;;0.60;0.60;;;10.40;99.90;;;;;;5113292;28;20196;-72
2022/08/26 01:58:19;;;;;;;0.68;0.68;;;10.40;99.90;;;;;;5113098;28;20210;-72
2022/08/26 02:00:45;;;;;;;0.60;0.60;;;10.40;99.90;;;;;;5111927;28;20214;-73
2022/08/26 02:03:17;;;;;;;0.60;0.60;;;10.30;99.90;;;;;;5113311;28;20221;-72
2022/08/26 02:05:53;;;;;;;0.52;0.52;;;10.30;99.90;;;;;;5111849;28;20191;-73
2022/08/26 02:08:31;;;;;;;0.60;0.60;;;10.20;99.90;;;;;;5113067;28;20188;-73
2022/08/26 02:10:57;;;;;;;0.68;0.68;;;10.20;99.90;;;;;;5111962;28;20672;-72
2022/08/26 02:13:30;;;;;;;0.60;0.60;;;10.20;99.90;;;;;;5113019;28;20673;-72
2022/08/26 02:15:57;;;;;;;3.63;1.77;;;10.20;99.90;;;;;;5113298;28;20187;-72
2022/08/26 02:18:32;;;;;;;0.50;0.50;;;10.10;99.90;;;;;;5112824;28;20226;-72
2022/08/26 02:21:00;;;;;;;0.52;0.52;;;10.10;99.90;;;;;;5112989;28;20236;-72
2022/08/26 02:23:26;;;;;;;0.70;0.70;;;10.10;99.90;;;;;;5112898;28;20284;-72
2022/08/26 02:25:59;;;;;;;0.52;0.52;;;10.10;99.90;;;;;;5109868;28;20279;-71
2022/08/26 02:28:33;;;;;;;0.93;0.85;;;10.00;99.90;;;;;;5091699;28;20643;-71
2022/08/26 02:31:01;;;;;;;0.60;0.60;;;10.00;99.90;;;;;;5127275;27;20271;-72
2022/08/26 02:33:28;;;;;;;0.57;0.57;;;10.00;99.90;;;;;;5137685;27;20652;-73
2022/08/26 02:36:00;;;;;;;0.60;0.60;;;9.90;99.90;;;;;;5137472;27;20190;-71
2022/08/26 02:38:26;;;;;;;0.50;0.50;;;9.90;99.90;;;;;;5118941;27;20206;-72
2022/08/26 02:40:52;;;;;;;0.57;0.57;;;9.90;99.90;;;;;;5137443;27;20259;-71
2022/08/26 02:43:17;;;;;;;1.13;1.02;;;9.90;99.90;;;;;;5118590;27;20661;-72
2022/08/26 02:45:44;;;;;;;0.70;0.70;;;9.90;99.90;;;;;;5137184;27;20187;-71
2022/08/26 02:48:14;;;;;;;0.50;0.50;;;9.90;99.90;;;;;;5118835;27;20672;-72
2022/08/26 02:50:40;;;;;;;0.55;0.55;;;9.90;99.90;;;;;;5137144;27;20657;-71
2022/08/26 02:53:07;;;;;;;0.50;0.50;;;9.80;99.90;;;;;;5137130;27;20256;-71
2022/08/26 02:55:33;;;;;;;0.73;0.73;;;9.80;99.90;;;;;;5136843;27;20684;-72
2022/08/26 02:58:00;;;;;;;0.50;0.50;;;9.80;99.90;;;;;;5137159;27;20194;-72
2022/08/26 03:00:26;;;;;;;0.60;0.60;;;9.80;99.90;;;;;;5118452;27;20703;-72
2022/08/26 03:02:55;;;;;;;0.60;0.60;;;9.70;99.90;;;;;;5136176;27;20309;-71
2022/08/26 03:05:22;;;;;;;0.65;0.65;;;9.80;99.90;;;;;;5118370;27;20692;-72
2022/08/26 03:07:48;;;;;;;0.60;0.60;;;9.80;99.90;;;;;;5118409;27;20593;-71
2022/08/26 03:10:15;;;;;;;0.50;0.50;;;9.70;99.90;;;;;;5136972;27;20212;-72
2022/08/26 03:12:41;;;;;;;0.70;0.70;;;9.70;99.90;;;;;;5118327;27;20195;-72
2022/08/26 03:15:08;;;;;;;1.42;1.00;;;9.70;99.90;;;;;;5137061;27;20717;-72
2022/08/26 03:17:37;;;;;;;0.70;0.70;;;9.60;99.90;;;;;;5136557;27;20209;-72
2022/08/26 03:20:08;;;;;;;0.70;0.70;;;9.60;99.90;;;;;;5118102;27;20194;-72
2022/08/26 03:22:34;;;;;;;0.60;0.60;;;9.60;99.90;;;;;;5136432;27;20198;-72
2022/08/26 03:25:00;;;;;;;0.52;0.52;;;9.60;99.90;;;;;;5136557;27;20661;-73
2022/08/26 03:27:29;;;;;;;1.75;1.02;;;9.60;99.90;;;;;;5117398;27;20676;-72
2022/08/26 03:35:02;;;;;;;;;;;;;;;;;;;;;
2022/08/26 03:43:58;;;;;;;0.70;0.70;;;9.60;99.90;;;;;;5014002;28;20236;-74
2022/08/26 03:46:25;;;;;;;0.60;0.60;;;9.60;99.90;;;;;;5052976;28;20210;-74
2022/08/26 03:48:51;;;;;;;1.08;0.88;;;9.60;99.90;;;;;;5053020;28;20706;-73
2022/08/26 03:51:18;;;;;;;0.65;0.65;;;9.60;99.90;;;;;;5053154;28;20296;-75
2022/08/26 03:53:47;;;;;;;0.60;0.60;;;9.60;99.90;;;;;;5052740;28;20386;-74
2022/08/26 03:56:13;;;;;;;0.57;0.57;;;9.60;99.90;;;;;;5036222;28;20224;-74
2022/08/26 03:58:43;;;;;;;0.50;0.50;;;9.60;99.90;;;;;;5035880;28;20213;-74
2022/08/26 04:01:10;;;;;;;0.60;0.60;;;9.50;99.90;;;;;;5052902;28;20194;-74
2022/08/26 04:06:21;;;;;;;0.60;0.60;;;9.70;99.90;;;;;;5053453;28;20575;-73
2022/08/26 04:08:47;;;;;;;0.82;0.82;;;9.70;99.90;;;;;;5035734;28;20285;-72
2022/08/26 04:11:21;;;;;;;0.60;0.60;;;9.70;99.90;;;;;;5035705;28;20202;-72
2022/08/26 04:13:48;;;;;;;0.85;0.85;;;9.70;99.90;;;;;;5035849;28;20197;-73
2022/08/26 04:19:16;;;;;;;0.60;0.60;;;9.70;99.90;;;;;;5138135;27;20218;-74
2022/08/26 04:34:39;;;;;;;0.60;0.60;;;10.00;99.90;;;;;;5018240;28;20206;-91
2022/08/26 04:37:18;;;;;;;0.70;0.70;;;10.20;99.90;;;;;;5018626;28;20568;-94
2022/08/26 04:40:05;;;;;;;0.60;0.60;;;10.40;99.90;;;;;;5018725;28;20317;-92
2022/08/26 04:42:41;;;;;;;0.50;0.50;;;10.60;99.90;;;;;;5019246;28;20199;-91
2022/08/26 04:45:58;;;;;;;0.55;0.55;;;10.90;99.90;;;;;;5017978;28;20213;-91
2022/08/26 04:48:54;;;;;;;0.50;0.50;;;11.10;99.90;;;;;;4985565;28;20213;-92
2022/08/26 04:51:29;;;;;;;0.60;0.60;;;11.20;99.90;;;;;;5001617;28;20179;-90
2022/08/26 04:54:05;;;;;;;0.50;0.50;;;11.30;99.90;;;;;;5000853;28;20282;-91
2022/08/26 04:56:51;;;;;;;0.50;0.50;;;11.30;99.90;;;;;;5002054;28;20194;-92
2022/08/26 05:00:30;;;;;;;0.70;0.70;;;11.40;99.90;;;;;;5002195;28;20237;-90
2022/08/26 05:03:06;;;;;;;0.60;0.60;;;11.60;99.90;;;;;;4999651;28;20235;-92
2022/08/26 05:05:42;;;;;;;0.50;0.50;;;11.70;99.90;;;;;;5064895;28;20207;-91
2022/08/26 05:08:39;;;;;;;0.65;0.65;;;11.80;99.90;;;;;;5082409;28;20204;-92
2022/08/26 05:11:10;;;;;;;0.60;0.60;;;11.90;99.90;;;;;;5082076;28;20666;-92
2022/08/26 05:14:08;;;;;;;0.60;0.60;;;12.10;99.90;;;;;;5081740;28;20245;-93
2022/08/26 05:16:34;;;;;;;0.80;0.80;;;12.30;99.90;;;;;;5081904;28;20680;-92
2022/08/26 05:20:00;;;;;;;10.98;1.27;;;12.40;99.90;;;;;;5090110;28;20269;-92
2022/08/26 05:22:35;;;;;;;0.70;0.70;;;12.60;99.90;;;;;;5074906;28;20201;-84
2022/08/26 05:25:20;;;;;;;0.50;0.50;;;12.80;99.90;;;;;;5097867;28;20317;-85
2022/08/26 05:27:50;;;;;;;0.70;0.70;;;12.90;99.90;;;;;;5096473;28;20665;-84
2022/08/26 05:31:03;;;;;;;0.60;0.60;;;13.10;99.90;;;;;;5078909;28;20196;-85
2022/08/26 05:33:33;;;;;;;0.40;0.40;;;13.20;99.90;;;;;;5059695;28;20201;-85
2022/08/26 05:36:18;;;;;;;0.40;0.40;;;13.40;99.90;;;;;;5080069;28;20564;-84
2022/08/26 05:38:47;;;;;;;0.50;0.50;;;13.50;99.90;;;;;;5079715;28;20228;-86
2022/08/26 05:41:23;;;;;;;0.50;0.50;;;13.60;99.90;;;;;;5080220;28;20195;-86
2022/08/26 05:43:50;;;;;;;0.45;0.45;;;13.70;99.90;;;;;;5080092;28;20588;-84
2022/08/26 05:46:21;;;;;;;0.50;0.50;;;13.90;99.90;;;;;;5088070;28;20286;-85
2022/08/26 05:48:57;;;;;;;0.73;0.70;;;14.10;99.90;;;;;;5100043;28;20341;-85
2022/08/26 05:51:24;;;;;;;0.77;0.70;;;14.30;99.90;;;;;;5117911;28;20194;-85
2022/08/26 05:54:09;;;;;;;0.50;0.50;;;14.40;99.90;;;;;;5100289;28;20693;-85
2022/08/26 05:56:35;;;;;;;0.60;0.60;;;14.50;99.90;;;;;;5099238;28;20279;-84
2022/08/26 06:02:09;;;;;;;1.85;0.65;;;14.60;99.90;;;;;;5119281;28;20202;-85
2022/08/26 06:04:35;;;;;;;0.40;0.40;;;14.70;99.90;;;;;;5102822;28;20584;-85
2022/08/26 06:07:03;;;;;;;0.68;0.63;;;14.70;99.90;;;;;;5104253;28;20191;-85
2022/08/26 06:09:29;;;;;;;0.50;0.50;;;14.60;99.90;;;;;;5103019;28;20214;-85
2022/08/26 06:11:57;;;;;;;0.90;0.80;;;14.60;99.90;;;;;;5103547;28;20665;-84
2022/08/26 06:14:41;;;;;;;0.52;0.52;;;14.70;99.90;;;;;;5103673;28;20687;-85
2022/08/26 06:17:28;;;;;;;0.60;0.60;;;14.70;99.90;;;;;;5103051;28;20203;-85
2022/08/26 06:20:24;;;;;;;;;;;;;;;;;;;;;
2022/08/26 06:26:18;;;;;;;0.47;0.47;;;14.80;99.90;;;;;;5120833;28;20218;-85
2022/08/26 06:28:44;;;;;;;0.40;0.40;;;14.80;99.90;;;;;;5105049;28;20222;-85
2022/08/26 06:31:10;;;;;;;0.57;0.57;;;14.90;99.90;;;;;;5105310;28;20200;-85
2022/08/26 06:33:42;;;;;;;0.50;0.50;;;15.00;99.90;;;;;;5105931;28;20325;-84
2022/08/26 06:36:30;;;;;;;0.68;0.65;;;15.00;99.90;;;;;;5103482;28;20210;-86
2022/08/26 06:39:15;;;;;;;0.57;0.57;;;15.00;99.90;;;;;;5102771;28;20195;-86
2022/08/26 06:42:24;;;;;;;0.60;0.60;;;15.10;99.90;;;;;;5102987;28;20199;-85
2022/08/26 06:44:56;;;;;;;0.47;0.47;;;15.20;99.90;;;;;;5103932;28;20587;-86
2022/08/26 06:50:48;;;;;;;4.88;0.85;;;15.30;99.90;;;;;;5018589;28;20218;-85
2022/08/26 06:53:15;;;;;;;0.52;0.52;;;15.40;99.90;;;;;;5042316;28;20205;-85
2022/08/26 06:55:57;;;;;;;;;;;;;;;;;;;;;
2022/08/26 06:58:43;;;;;;;0.70;0.70;;;15.50;99.90;;;;;;5059773;28;20628;-86
2022/08/26 07:01:51;;;;;;;1.95;0.90;;;15.60;99.90;;;;;;5059373;28;20211;-86
2022/08/26 07:08:05;;;;;;;0.50;0.50;;;15.60;99.90;;;;;;5018887;28;20207;-86
2022/08/26 07:45:23;;;;;;;0.40;0.40;;;16.10;99.90;;;;;;4816394;29;20316;-86
2022/08/26 07:51:53;;;;;;;0.70;0.70;;;16.10;99.90;;;;;;4775600;30;20294;-85
2022/08/26 07:54:28;;;;;;;0.50;0.50;;;16.20;99.90;;;;;;4773959;29;20225;-85
2022/08/26 07:57:06;;;;;;;0.40;0.40;;;16.20;99.90;;;;;;4827054;29;20206;-86
2022/08/26 08:00:18;;;;;;;0.40;0.40;;;16.20;99.90;;;;;;4827765;29;20193;-86
2022/08/26 08:02:46;;;;;;;0.65;0.65;;;16.20;99.90;;;;;;4866051;29;20253;-85
2022/08/26 08:05:35;;;;;;;;;;;;;;;;;;;;;
2022/08/26 08:08:16;;;;;;;0.55;0.55;;;16.10;99.90;;;;;;4857375;29;20247;-85
2022/08/26 08:11:10;;;;;;;0.82;0.70;;;16.20;99.90;;;;;;4841275;29;20217;-87
2022/08/26 08:13:39;;;;;;;0.47;0.45;;;16.30;99.90;;;;;;4838590;29;20236;-85
2022/08/26 08:16:12;;;;;;;0.43;0.43;;;16.40;99.90;;;;;;4895696;29;20705;-85
2022/08/26 08:18:39;;;;;;;0.50;0.50;;;16.60;99.90;;;;;;4910617;29;20850;-86
2022/08/26 08:21:10;;;;;;;0.70;0.70;;;16.70;99.90;;;;;;4911127;29;20317;-87
2022/08/26 08:23:44;;;;;;;0.65;0.65;;;16.70;99.90;;;;;;4910351;29;20233;-86
2022/08/26 08:26:34;;;;;;;0.80;0.50;;;16.70;99.90;;;;;;4909567;29;20237;-85
2022/08/26 08:29:34;;;;;;;0.85;0.70;;;16.80;99.90;;;;;;5000283;28;20238;-85
2022/08/26 08:32:43;;;;;;;0.40;0.40;;;16.90;99.90;;;;;;4986976;28;20204;-85
2022/08/26 08:35:27;;;;;;;0.50;0.50;;;16.90;99.90;;;;;;5061342;28;20255;-87
2022/08/26 08:38:36;;;;;;;0.30;0.30;;;17.00;99.90;;;;;;5046033;28;20209;-87
2022/08/26 08:41:14;;;;;;;0.50;0.50;;;17.00;99.90;;;;;;5044086;28;20208;-86
2022/08/26 08:44:00;;;;;;;0.50;0.50;;;17.00;99.90;;;;;;5062685;28;20212;-86
2022/08/26 08:46:39;;;;;;;0.32;0.32;;;17.10;99.90;;;;;;5079923;28;20204;-86
2022/08/26 08:49:15;;;;;;;0.50;0.50;;;17.10;99.90;;;;;;5082445;28;20199;-86
2022/08/26 08:52:32;;;;;;;;;;;;;;;;;;;;;
2022/08/26 08:55:09;;;;;;;0.50;0.50;;;17.10;99.90;;;;;;5101726;28;20268;-89
2022/08/26 08:58:23;;;;;;;0.30;0.30;;;17.10;99.90;;;;;;5082851;28;20601;-87
2022/08/26 09:02:20;;;;;;;;;;;;;;;;;;;;;
2022/08/26 09:05:01;;;;;;;;;;;;;;;;;;;;;
2022/08/26 09:11:31;;;;;;;2.00;0.82;;;17.20;99.90;;;;;;4939456;29;20210;-88
2022/08/26 09:14:35;;;;;;;1.40;0.57;;;17.20;99.90;;;;;;4938278;28;20271;-88
2022/08/26 09:17:45;;;;;;;1.58;0.57;;;17.20;99.90;;;;;;4955281;28;20207;-88
2022/08/26 09:20:22;;;;;;;0.45;0.45;;;17.20;99.90;;;;;;4978802;28;20269;-88
2022/08/26 09:22:56;;;;;;;0.40;0.40;;;17.20;99.90;;;;;;4966464;28;20216;-88
2022/08/26 09:29:38;;;;;;;0.47;0.47;;;17.30;99.90;;;;;;4968786;28;20339;-88
2022/08/26 09:32:44;;;;;;;0.30;0.30;;;17.30;99.90;;;;;;4902173;29;20218;-87
2022/08/26 09:36:04;;;;;;;;;;;;;;;;;;;;;
2022/08/26 09:38:40;;;;;;;1.13;0.77;;;17.30;99.90;;;;;;4930356;29;20273;-87
2022/08/26 09:41:24;;;;;;;0.30;0.30;;;17.30;99.90;;;;;;4956987;28;20613;-88
2022/08/26 09:44:11;;;;;;;0.70;0.70;;;17.30;99.90;;;;;;4956357;29;20224;-88
2022/08/26 09:47:35;;;;;;;0.35;0.35;;;17.30;99.90;;;;;;4961018;28;20283;-88
2022/08/26 09:50:20;;;;;;;0.40;0.40;;;17.40;99.90;;;;;;4995147;28;20211;-88
2022/08/26 10:00:32;;;;;;;;;;;;;;;;;;;;;
2022/08/26 10:03:43;;;;;;;;;;;;;;;;;;;;;
2022/08/26 10:06:23;;;;;;;0.40;0.40;;;17.80;99.90;;;;;;4977590;28;20287;-89
2022/08/26 10:09:00;;;;;;;0.40;0.40;;;17.80;99.90;;;;;;5061770;28;20541;-88
2022/08/26 10:15:27;;;;;;;0.40;0.40;;;17.80;99.90;;;;;;5046927;28;20189;-88
2022/08/26 10:18:29;;;;;;;0.30;0.30;;;18.00;99.90;;;;;;5077992;28;20246;-88
2022/08/26 10:21:35;;;;;;;2.50;0.68;;;18.10;99.90;;;;;;5060846;28;20197;-89
2022/08/26 10:24:38;;;;;;;0.30;0.30;;;18.10;99.90;;;;;;5060299;28;20211;-88
2022/08/26 10:27:58;;;;;;;;;;;;;;;;;;;;;
2022/08/26 10:31:24;;;;;;;;;;;;;;;;;;;;;
2022/08/26 10:34:04;;;;;;;0.43;0.43;;;18.50;99.90;;;;;;4995948;28;20314;-88
2022/08/26 10:36:49;;;;;;;0.20;0.20;;;18.90;99.90;;;;;;5058620;28;20232;-86
2022/08/26 10:40:00;;;;;;;0.52;0.52;;;19.10;99.90;;;;;;5060071;28;20200;-87
2022/08/26 10:43:01;;;;;;;0.60;0.60;;;19.40;99.90;;;;;;5059924;28;20197;-86
2022/08/26 10:46:15;;;;;;;0.50;0.50;;;19.80;99.90;;;;;;5079030;28;20634;-86
2022/08/26 10:49:16;;;;;;;0.35;0.35;;;20.10;99.90;;;;;;5092054;28;20208;-86
2022/08/26 10:52:26;;;;;;;0.40;0.40;;;20.40;99.90;;;;;;5103926;28;20221;-86
2022/08/26 10:55:13;;;;;;;0.82;0.68;;;20.20;99.90;;;;;;5062281;28;20219;-87
2022/08/26 10:58:05;;;;;;;0.30;0.30;;;20.30;99.90;;;;;;5080955;28;20200;-86
2022/08/26 11:03:57;;;;;;;0.20;0.20;;;20.30;99.90;;;;;;5102272;28;20245;-86
2022/08/26 11:07:02;;;;;;;0.45;0.45;;;20.40;99.90;;;;;;5083873;28;20200;-86
2022/08/26 11:09:46;;;;;;;0.52;0.52;;;20.00;99.90;;;;;;5101835;28;20199;-85
2022/08/26 11:12:44;;;;;;;0.30;0.30;;;20.00;99.90;;;;;;5084302;28;20188;-86
2022/08/26 11:19:05;;;;;;;;;;;;;;;;;;;;;
2022/08/26 11:21:59;;;;;;;;;;;;;;;;;;;;;
2022/08/26 11:24:54;;;;;;;0.45;0.45;;;19.70;99.90;;;;;;5101251;28;20761;-88
2022/08/26 11:27:37;;;;;;;0.20;0.20;;;20.00;99.90;;;;;;5063068;28;20201;-87
2022/08/26 11:30:37;;;;;;;;;;;;;;;;;;;;;
2022/08/26 11:36:26;;;;;;;0.32;0.32;;;20.40;99.90;;;;;;5053020;28;20311;-87
2022/08/26 11:39:31;;;;;;;;;;;;;;;;;;;;;
2022/08/26 11:42:33;;;;;;;0.50;0.50;;;20.80;99.90;;;;;;5109163;28;20229;-87
2022/08/26 11:45:06;;;;;;;0.57;0.57;;;20.80;99.90;;;;;;5063175;28;20215;-87
2022/08/26 11:47:37;;;;;;;0.57;0.57;;;20.70;99.90;;;;;;5099745;28;20180;-86
2022/08/26 11:50:17;;;;;;;0.30;0.30;;;20.90;99.90;;;;;;5099386;28;20193;-87
2022/08/26 11:53:03;;;;;;;0.40;0.40;;;21.10;99.90;;;;;;5088286;28;20196;-87
2022/08/26 11:55:31;;;;;;;0.90;0.60;;;21.40;99.90;;;;;;5083290;28;20196;-87
2022/08/26 11:58:18;;;;;;;0.75;0.52;;;22.00;99.90;;;;;;5082424;28;20268;-88
2022/08/26 12:01:02;;;;;;;0.40;0.40;;;22.30;99.90;;;;;;5081437;28;20204;-87
2022/08/26 12:04:17;;;;;;;0.43;0.43;;;22.50;99.90;;;;;;5100907;28;20192;-88
2022/08/26 12:07:18;;;;;;;;;;;;;;;;;;;;;
2022/08/26 12:10:13;;;;;;;0.30;0.30;;;22.30;99.90;;;;;;5100929;28;20290;-88
2022/08/26 12:12:41;;;;;;;0.98;0.60;;;22.30;99.90;;;;;;5068083;28;20235;-88
2022/08/26 12:15:16;;;;;;;0.30;0.30;;;22.20;99.90;;;;;;5083020;28;20196;-87
2022/08/26 12:18:06;;;;;;;0.45;0.45;;;21.90;99.90;;;;;;5082097;28;20284;-88
2022/08/26 12:20:52;;;;;;;0.50;0.50;;;22.00;99.90;;;;;;5068263;28;20200;-87
2022/08/26 12:23:32;;;;;;;0.52;0.50;;;22.00;99.90;;;;;;5083046;28;20255;-89
2022/08/26 12:26:19;;;;;;;0.75;0.38;;;22.00;99.90;;;;;;5079562;28;20563;-88
2022/08/26 12:29:08;;;;;;;0.47;0.35;;;22.00;99.90;;;;;;5062681;28;20280;-88
2022/08/26 12:34:26;;;;;;;0.32;0.32;;;21.80;99.90;;;;;;5062830;28;20201;-88
2022/08/26 12:36:58;;;;;;;0.30;0.30;;;22.10;99.90;;;;;;5063348;28;20256;-88
2022/08/26 12:42:46;;;;;;;0.20;0.20;;;22.40;99.90;;;;;;5073922;28;20195;-87
2022/08/26 12:45:59;;;;;;;0.40;0.40;;;22.60;99.90;;;;;;5099311;28;20572;-89
2022/08/26 12:48:31;;;;;;;0.20;0.20;;;22.70;99.90;;;;;;4998195;28;20286;-87
2022/08/26 12:51:00;;;;;;;0.50;0.50;;;22.70;99.90;;;;;;4981939;28;20200;-89
2022/08/26 12:53:45;;;;;;;0.30;0.30;;;22.50;99.90;;;;;;4983051;28;20793;-95
2022/08/26 12:56:55;;;;;;;0.30;0.30;;;22.30;99.90;;;;;;4981713;28;20211;-90
2022/08/26 13:00:18;;;;;;;;;;;;;;;;;;;;;
2022/08/26 13:02:54;;;;;;;0.22;0.22;;;22.20;99.90;;;;;;4997656;28;20307;-89
2022/08/26 13:05:41;;;;;;;0.20;0.20;;;22.10;99.90;;;;;;4983840;28;20634;-90
2022/08/26 13:08:32;;;;;;;0.20;0.20;;;22.10;99.90;;;;;;4981945;28;20263;-89
2022/08/26 13:11:19;;;;;;;0.30;0.30;;;22.10;99.90;;;;;;4998844;28;20192;-89
2022/08/26 13:14:03;;;;;;;0.32;0.32;;;21.80;99.90;;;;;;4981902;28;20317;-89
2022/08/26 13:16:39;;;;;;;0.68;0.40;;;21.60;99.90;;;;;;4982001;28;20192;-89
2022/08/26 13:19:09;;;;;;;0.52;0.35;;;21.60;99.90;;;;;;4982032;28;20223;-89
2022/08/26 13:22:07;;;;;;;;;;;;;;;;;;;;;
2022/08/26 13:24:59;;;;;;;0.30;0.25;;;21.50;99.90;;;;;;5024571;28;20311;-89
2022/08/26 13:27:57;;;;;;;0.25;0.25;;;21.70;99.90;;;;;;5081173;28;20214;-89
2022/08/26 13:34:08;;;;;;;0.40;0.38;;;21.90;99.90;;;;;;5035145;28;20223;-89
2022/08/26 13:36:55;;;;;;;;;;;;;;;;;;;;;
2022/08/26 13:39:57;;;;;;;;;;;;;;;;;;;;;
2022/08/26 13:42:33;;;;;;;0.30;0.30;;;22.40;99.90;;;;;;5046431;28;20276;-90
2022/08/26 13:45:16;;;;;;;2.00;0.70;;;22.40;99.90;;;;;;5049121;28;20232;-89
2022/08/26 13:48:17;;;;;;;0.20;0.20;;;22.90;99.90;;;;;;5040744;28;20193;-89
2022/08/26 13:50:52;;;;;;;0.20;0.20;;;23.10;99.90;;;;;;5038532;28;20200;-89
2022/08/26 13:57:06;;;;;;;0.20;0.20;;;23.30;99.90;;;;;;5042531;28;20559;-89
2022/08/26 14:00:24;;;;;;;0.20;0.20;;;23.10;99.90;;;;;;5039049;28;20755;-89
2022/08/26 14:02:53;;;;;;;0.30;0.30;;;22.80;99.90;;;;;;5010717;28;20266;-89
2022/08/26 14:05:29;;;;;;;0.20;0.20;;;22.90;99.90;;;;;;5016298;28;20294;-89
2022/08/26 14:11:07;;;;;;;0.40;0.40;;;23.30;99.90;;;;;;5018539;28;20230;-87
2022/08/26 14:16:47;;;;;;;0.57;0.40;;;22.70;99.90;;;;;;5031321;28;20206;-88
2022/08/26 14:22:59;;;;;;;0.40;0.40;;;22.60;99.90;;;;;;5032905;28;20198;-88
2022/08/26 14:29:07;;;;;;;11.85;1.05;;;22.60;99.90;;;;;;5040577;28;20202;-89
2022/08/26 14:34:57;;;;;;;0.32;0.30;;;22.30;99.90;;;;;;5003641;28;20243;-87
2022/08/26 14:38:03;;;;;;;0.40;0.40;;;22.00;99.90;;;;;;4987225;28;20203;-88
2022/08/26 14:40:33;;;;;;;0.43;0.43;;;22.00;99.90;;;;;;5092182;28;20630;-88
2022/08/26 14:46:41;;;;;;;;;;;;;;;;;;;;;
2022/08/26 14:49:10;;;;;;;0.52;0.50;;;21.80;99.90;;;;;;5075161;28;20212;-89
2022/08/26 14:52:02;;;;;;;0.40;0.40;;;21.50;99.90;;;;;;5062091;28;20196;-87
2022/08/26 14:54:46;;;;;;;0.30;0.30;;;21.50;99.90;;;;;;5062352;28;20231;-88
2022/08/26 14:57:14;;;;;;;0.63;0.52;;;21.50;99.90;;;;;;5063559;28;20273;-88
2022/08/26 14:59:45;;;;;;;0.40;0.40;;;21.50;99.90;;;;;;5058680;28;20221;-87
2022/08/26 15:02:27;;;;;;;;;;;;;;;;;;;;;
2022/08/26 15:04:56;;;;;;;0.20;0.20;;;21.20;99.90;;;;;;5072637;28;20236;-87
2022/08/26 15:07:33;;;;;;;0.40;0.40;;;21.30;99.90;;;;;;5055205;28;20254;-88
2022/08/26 15:09:59;;;;;;;8.90;0.45;;;21.10;99.90;;;;;;5056084;28;20193;-86
2022/08/26 15:12:33;;;;;;;2.72;0.80;;;21.00;99.90;;;;;;5072543;28;20192;-88
2022/08/26 15:19:07;;;;;;;;;;;;;;;;;;;;;
2022/08/26 15:22:04;;;;;;;0.20;0.20;;;20.90;99.90;;;;;;5070715;28;20224;-86
2022/08/26 15:25:04;;;;;;;0.32;0.32;;;20.90;99.90;;;;;;5050034;28;20676;-86
2022/08/26 15:27:30;;;;;;;0.20;0.20;;;20.90;99.90;;;;;;5082839;28;20681;-87
2022/08/26 15:30:12;;;;;;;0.13;0.13;;;20.80;99.90;;;;;;5092136;28;20203;-87
2022/08/26 15:33:18;;;;;;;;;;;;;;;;;;;;;
2022/08/26 15:36:11;;;;;;;0.30;0.30;;;20.80;99.90;;;;;;5116158;28;20258;-87
2022/08/26 15:39:38;;;;;;;;;;;;;;;;;;;;;
2022/08/26 15:49:45;;;;;;;0.50;0.50;;;20.50;99.90;;;;;;5081378;28;20693;-89
2022/08/26 15:52:46;;;;;;;0.30;0.30;;;20.40;99.90;;;;;;5090218;28;20287;-87
2022/08/26 15:55:25;;;;;;;0.57;0.30;;;20.30;99.90;;;;;;5094785;28;20196;-88
2022/08/26 15:58:21;;;;;;;;;;;;;;;;;;;;;
2022/08/26 16:05:21;;;;;;;;;;;;;;;;;;;;;
2022/08/26 16:08:36;;;;;;;0.40;0.40;;;20.50;99.90;;;;;;5100744;28;20584;-86
2022/08/26 16:18:01;;;;;;;0.20;0.20;;;20.70;99.90;;;;;;4998550;28;20200;-91
2022/08/26 16:20:51;;;;;;;0.40;0.40;;;20.90;99.90;;;;;;4998690;28;20215;-88
2022/08/26 16:27:07;;;;;;;0.30;0.30;;;21.00;99.90;;;;;;4960054;29;20236;-87
2022/08/26 16:29:53;;;;;;;0.73;0.60;;;20.90;99.90;;;;;;4950304;29;20604;-87
2022/08/26 16:36:46;;;;;;;0.40;0.40;;;20.80;99.90;;;;;;4947978;29;20261;-88
2022/08/26 16:44:20;;;;;;;;;;;;;;;;;;;;;
2022/08/26 16:51:14;;;;;;;1.27;0.63;;;19.60;99.90;;;;;;4852071;29;20249;-90
2022/08/26 16:58:02;;;;;;;0.28;0.28;;;19.30;99.90;;;;;;4833960;29;20217;-92
2022/08/26 17:01:28;;;;;;;;;;;;;;;;;;;;;
2022/08/26 17:04:10;;;;;;;0.70;0.60;;;18.90;99.90;;;;;;4780999;30;20325;-90
2022/08/26 17:10:46;;;;;;;0.30;0.30;;;18.70;99.90;;;;;;4883679;29;20765;-89
2022/08/26 17:13:35;;;;;;;;;;;;;;;;;;;;;
2022/08/26 17:19:47;;;;;;;0.50;0.40;;;18.50;99.90;;;;;;4913510;28;20204;-89
2022/08/26 17:22:14;;;;;;;0.25;0.25;;;18.40;99.90;;;;;;4969759;28;20231;-89
2022/08/26 17:28:35;;;;;;;0.47;0.47;;;18.20;99.90;;;;;;4985529;28;20203;-91
2022/08/26 17:34:59;;;;;;;2.10;0.70;;;18.00;99.90;;;;;;4925031;29;20205;-89
2022/08/26 17:41:02;;;;;;;0.28;0.28;;;17.90;99.90;;;;;;4963436;28;20221;-90
2022/08/26 17:43:30;;;;;;;0.43;0.43;;;17.70;99.90;;;;;;5030716;28;20206;-90
2022/08/26 17:46:18;;;;;;;0.57;0.57;;;17.60;99.90;;;;;;5064553;28;20285;-90
2022/08/26 17:52:48;;;;;;;;;;;;;;;;;;;;;
2022/08/26 17:55:23;;;;;;;0.70;0.70;;;17.40;99.90;;;;;;5007244;28;20234;-88
2022/08/26 17:59:08;;;;;;;0.40;0.40;;;17.40;99.90;;;;;;4990230;28;20206;-89
2022/08/26 18:01:39;;;;;;;0.52;0.52;;;17.40;99.90;;;;;;4995474;28;20218;-90
2022/08/26 18:08:26;;;;;;;4.78;1.17;;;17.20;99.90;;;;;;4905033;29;20220;-90
2022/08/26 18:10:57;;;;;;;0.43;0.43;;;17.10;99.90;;;;;;4909501;29;20234;-90
2022/08/26 18:20:37;;;;;;;0.40;0.40;;;17.10;99.90;;;;;;4870492;29;20200;-89
2022/08/26 18:23:19;;;;;;;0.45;0.45;;;17.10;99.90;;;;;;4875428;29;20739;-88